Time;durP1;ratioP1;P1;durP2;ratioP2;P2;SDS_P1;SDS_P2;PMS_P1;PMS_P2;Temp;Humidity;BMP_temperature;BMP_pressure;BME280_temperature;BME280_humidity;BME280_pressure;Samples;Min_cycle;Max_cycle;Signal;HPM_P1;HPM_P2
2023/10/21 00:01:28;;;;;;;25.17;12.27;;;6.90;99.90;;;;;;4968740;28;20228;-74
2023/10/21 00:03:54;;;;;;;24.10;10.13;;;7.00;99.90;;;;;;4972256;28;20864;-73
2023/10/21 00:06:20;;;;;;;26.93;13.03;;;7.00;99.90;;;;;;4969904;28;20289;-74
2023/10/21 00:08:45;;;;;;;21.83;10.57;;;7.00;99.90;;;;;;4972503;28;20190;-73
2023/10/21 00:11:12;;;;;;;26.20;11.93;;;7.00;99.90;;;;;;4967500;28;20218;-74
2023/10/21 00:13:38;;;;;;;23.47;11.03;;;7.00;99.90;;;;;;4970710;28;20222;-73
2023/10/21 00:16:04;;;;;;;24.77;11.23;;;7.00;99.90;;;;;;4970415;28;20222;-74
2023/10/21 00:18:30;;;;;;;23.33;10.67;;;7.00;99.90;;;;;;4969133;28;20222;-74
2023/10/21 00:20:55;;;;;;;23.07;11.43;;;7.00;99.90;;;;;;4970781;28;20187;-73
2023/10/21 00:23:22;;;;;;;21.53;10.90;;;7.00;99.90;;;;;;4975021;28;20277;-73
2023/10/21 00:25:48;;;;;;;23.33;11.50;;;7.00;99.90;;;;;;4974496;28;20223;-74
2023/10/21 00:28:14;;;;;;;22.63;11.13;;;7.00;99.90;;;;;;4974027;28;20222;-74
2023/10/21 00:30:41;;;;;;;27.07;11.27;;;7.00;99.90;;;;;;4973887;28;20245;-73
2023/10/21 00:33:06;;;;;;;26.90;12.70;;;7.10;99.90;;;;;;4972815;28;20216;-74
2023/10/21 00:35:32;;;;;;;28.40;11.50;;;7.10;99.90;;;;;;4967008;28;20633;-72
2023/10/21 00:37:58;;;;;;;25.27;11.90;;;7.10;99.90;;;;;;4974980;28;20604;-72
2023/10/21 00:40:24;;;;;;;29.73;11.77;;;7.10;99.90;;;;;;4974899;28;20292;-72
2023/10/21 00:42:49;;;;;;;27.43;12.20;;;7.00;99.90;;;;;;4974003;28;20248;-72
2023/10/21 00:45:15;;;;;;;26.10;12.57;;;7.10;99.90;;;;;;4973892;28;20237;-72
2023/10/21 00:47:41;;;;;;;26.33;11.57;;;7.10;99.90;;;;;;4975129;28;20206;-71
2023/10/21 00:50:07;;;;;;;26.13;11.73;;;7.10;99.90;;;;;;4975917;28;20277;-72
2023/10/21 00:52:44;;;;;;;31.17;12.87;;;7.10;99.90;;;;;;4974204;28;20296;-74
2023/10/21 00:55:11;;;;;;;27.57;11.50;;;7.10;99.90;;;;;;5015138;22;20224;-71
2023/10/21 00:57:37;;;;;;;27.37;11.97;;;7.10;99.90;;;;;;5013856;28;20223;-74
2023/10/21 01:00:10;;;;;;;29.87;12.87;;;7.10;99.90;;;;;;5000799;28;20743;-75
2023/10/21 01:02:37;;;;;;;30.00;12.20;;;7.10;99.90;;;;;;5020808;28;20180;-74
2023/10/21 01:05:03;;;;;;;28.07;13.40;;;7.10;99.90;;;;;;5001426;28;20220;-74
2023/10/21 01:07:34;;;;;;;33.60;12.90;;;7.10;99.90;;;;;;5002430;28;20596;-74
2023/10/21 01:10:00;;;;;;;33.37;13.63;;;7.10;99.90;;;;;;5003291;28;20223;-74
2023/10/21 01:12:26;;;;;;;29.27;13.83;;;7.10;99.90;;;;;;5003976;28;20700;-74
2023/10/21 01:14:52;;;;;;;30.57;13.47;;;7.10;99.90;;;;;;5024333;28;20208;-74
2023/10/21 01:17:18;;;;;;;33.27;14.47;;;7.10;99.90;;;;;;5007677;28;20216;-74
2023/10/21 01:19:43;;;;;;;30.20;12.77;;;7.10;99.90;;;;;;5007804;28;20765;-74
2023/10/21 01:22:10;;;;;;;31.77;13.90;;;7.10;99.90;;;;;;4997133;28;20312;-73
2023/10/21 01:24:36;;;;;;;28.83;12.40;;;7.20;99.90;;;;;;5005585;28;20270;-75
2023/10/21 01:27:02;;;;;;;33.80;13.80;;;7.20;99.90;;;;;;5017699;28;20281;-74
2023/10/21 01:29:27;;;;;;;28.27;13.17;;;7.20;99.90;;;;;;5007825;28;20244;-75
2023/10/21 01:31:53;;;;;;;31.20;14.90;;;7.20;99.90;;;;;;5001549;28;20217;-74
2023/10/21 01:34:18;;;;;;;31.17;13.30;;;7.20;99.90;;;;;;5003837;28;20212;-75
2023/10/21 01:36:45;;;;;;;29.73;13.27;;;7.20;99.90;;;;;;5002884;28;20213;-75
2023/10/21 01:39:11;;;;;;;29.30;14.10;;;7.20;99.90;;;;;;5008500;28;20220;-76
2023/10/21 01:41:40;;;;;;;35.37;15.37;;;7.20;99.90;;;;;;5002960;28;20213;-75
2023/10/21 01:44:05;;;;;;;30.30;13.93;;;7.20;99.90;;;;;;5000617;28;20735;-75
2023/10/21 01:46:31;;;;;;;29.80;14.90;;;7.20;99.90;;;;;;5001579;28;20213;-75
2023/10/21 01:48:57;;;;;;;30.67;14.80;;;7.20;99.90;;;;;;5001779;28;20217;-72
2023/10/21 01:51:22;;;;;;;31.53;14.10;;;7.20;99.90;;;;;;5001489;28;20210;-75
2023/10/21 01:53:48;;;;;;;42.57;14.93;;;7.20;99.90;;;;;;5003793;28;20200;-74
2023/10/21 01:56:14;;;;;;;35.97;14.57;;;7.20;99.90;;;;;;4998490;28;20737;-75
2023/10/21 01:58:39;;;;;;;33.30;15.00;;;7.20;99.90;;;;;;5002375;28;20290;-76
2023/10/21 02:01:11;;;;;;;31.33;14.33;;;7.20;99.90;;;;;;5001111;28;20224;-75
2023/10/21 02:03:37;;;;;;;33.90;15.00;;;7.30;99.90;;;;;;5002172;28;20243;-76
2023/10/21 02:06:06;;;;;;;40.73;16.33;;;7.20;99.90;;;;;;4999602;28;20210;-76
2023/10/21 02:08:32;;;;;;;37.63;16.03;;;7.30;99.90;;;;;;4996949;28;20229;-75
2023/10/21 02:10:58;;;;;;;39.83;15.77;;;7.30;99.90;;;;;;5004684;28;20603;-74
2023/10/21 02:13:24;;;;;;;41.57;15.43;;;7.30;99.90;;;;;;5001915;28;20204;-76
2023/10/21 02:15:52;;;;;;;36.23;14.80;;;7.30;99.90;;;;;;4999601;28;20260;-76
2023/10/21 02:18:18;;;;;;;34.43;15.33;;;7.30;99.90;;;;;;5003442;28;20216;-75
2023/10/21 02:20:43;;;;;;;38.23;15.57;;;7.30;99.90;;;;;;5004263;28;20654;-76
2023/10/21 02:23:09;;;;;;;39.07;13.80;;;7.30;99.90;;;;;;5002095;28;20221;-75
2023/10/21 02:25:35;;;;;;;37.07;15.17;;;7.40;99.90;;;;;;5001062;28;20633;-75
2023/10/21 02:28:01;;;;;;;32.53;15.73;;;7.30;99.90;;;;;;5001273;28;20267;-75
2023/10/21 02:30:27;;;;;;;34.03;14.80;;;7.30;99.90;;;;;;5004142;28;20209;-75
2023/10/21 02:32:53;;;;;;;35.87;14.93;;;7.40;99.90;;;;;;5019568;28;20185;-75
2023/10/21 02:35:18;;;;;;;42.03;15.73;;;7.40;99.90;;;;;;4999099;28;20260;-75
2023/10/21 02:37:45;;;;;;;40.10;16.73;;;7.40;99.90;;;;;;5002226;28;20658;-76
2023/10/21 02:40:15;;;;;;;37.90;16.53;;;7.40;99.90;;;;;;5001895;28;20631;-76
2023/10/21 02:42:42;;;;;;;35.80;15.73;;;7.30;99.90;;;;;;5003165;28;20213;-76
2023/10/21 02:45:08;;;;;;;39.90;15.43;;;7.40;99.90;;;;;;4999779;28;20768;-75
2023/10/21 02:47:34;;;;;;;38.73;15.80;;;7.40;99.90;;;;;;4996432;28;20216;-75
2023/10/21 02:50:00;;;;;;;34.10;15.60;;;7.40;99.90;;;;;;5001096;28;20202;-75
2023/10/21 02:52:25;;;;;;;43.20;16.00;;;7.40;99.90;;;;;;5002717;28;20205;-76
2023/10/21 02:54:51;;;;;;;35.33;14.77;;;7.40;99.90;;;;;;5014902;28;20253;-75
2023/10/21 02:57:17;;;;;;;40.67;17.23;;;7.40;99.90;;;;;;5003487;28;20213;-75
2023/10/21 02:59:42;;;;;;;43.17;16.37;;;7.50;99.90;;;;;;4999488;28;20663;-75
2023/10/21 03:02:08;;;;;;;38.73;16.07;;;7.50;99.90;;;;;;5009728;28;20221;-75
2023/10/21 03:04:35;;;;;;;33.63;14.50;;;7.50;99.90;;;;;;5018153;28;20220;-75
2023/10/21 03:07:01;;;;;;;38.50;16.23;;;7.50;99.90;;;;;;5006129;28;20580;-76
2023/10/21 03:09:27;;;;;;;34.37;15.43;;;7.50;99.90;;;;;;5001128;28;20205;-76
2023/10/21 03:11:53;;;;;;;36.17;15.97;;;7.50;99.90;;;;;;5006889;28;20199;-74
2023/10/21 03:14:19;;;;;;;36.27;14.93;;;7.50;99.90;;;;;;5016404;28;20212;-75
2023/10/21 03:16:44;;;;;;;34.83;15.77;;;7.50;99.90;;;;;;5005467;28;20209;-76
2023/10/21 03:19:10;;;;;;;32.90;14.17;;;7.50;99.90;;;;;;5004426;28;20672;-75
2023/10/21 03:21:35;;;;;;;37.00;14.53;;;7.50;99.90;;;;;;5006293;28;20216;-75
2023/10/21 03:24:01;;;;;;;37.27;13.80;;;7.50;99.90;;;;;;5002871;28;20671;-76
2023/10/21 03:26:27;;;;;;;36.43;15.17;;;7.50;99.90;;;;;;5001153;28;20206;-75
2023/10/21 03:28:52;;;;;;;45.40;15.70;;;7.50;99.90;;;;;;4999236;28;20286;-74
2023/10/21 03:31:18;;;;;;;39.00;15.63;;;7.50;99.90;;;;;;5005744;28;20243;-74
2023/10/21 03:33:44;;;;;;;30.13;14.17;;;7.50;99.90;;;;;;5006029;28;20209;-74
2023/10/21 03:36:10;;;;;;;33.13;13.20;;;7.50;99.90;;;;;;4999147;28;20173;-74
2023/10/21 03:38:37;;;;;;;38.00;13.10;;;7.50;99.90;;;;;;5002638;28;20750;-74
2023/10/21 03:41:05;;;;;;;33.73;13.90;;;7.50;99.90;;;;;;5004141;28;20711;-74
2023/10/21 03:43:31;;;;;;;39.00;15.40;;;7.50;99.90;;;;;;5006922;28;20205;-74
2023/10/21 03:46:05;;;;;;;46.00;15.67;;;7.50;99.90;;;;;;5007184;28;20224;-71
2023/10/21 03:48:31;;;;;;;36.83;14.20;;;7.50;99.90;;;;;;5005939;28;20216;-74
2023/10/21 03:51:11;;;;;;;41.73;15.83;;;7.50;99.90;;;;;;5006929;28;20184;-71
2023/10/21 03:53:38;;;;;;;35.47;15.47;;;7.50;99.90;;;;;;5002989;28;20770;-74
2023/10/21 03:56:04;;;;;;;38.30;15.50;;;7.50;99.90;;;;;;5005365;28;20736;-73
2023/10/21 03:58:30;;;;;;;37.20;15.33;;;7.50;99.90;;;;;;4997858;28;20284;-75
2023/10/21 04:00:57;;;;;;;33.37;14.10;;;7.50;99.90;;;;;;5005690;28;20239;-72
2023/10/21 04:03:24;;;;;;;40.57;14.23;;;7.50;99.90;;;;;;5006075;28;20212;-73
2023/10/21 04:05:51;;;;;;;41.83;13.73;;;7.50;99.90;;;;;;5002611;28;20552;-74
2023/10/21 04:08:17;;;;;;;38.43;14.83;;;7.50;99.90;;;;;;5001968;28;20214;-74
2023/10/21 04:10:43;;;;;;;32.80;13.90;;;7.50;99.90;;;;;;5001830;28;20219;-75
2023/10/21 04:13:08;;;;;;;44.30;14.83;;;7.50;99.90;;;;;;5004160;28;20229;-74
2023/10/21 04:15:34;;;;;;;41.63;14.83;;;7.50;99.90;;;;;;5005352;28;20296;-74
2023/10/21 04:18:00;;;;;;;34.77;14.33;;;7.50;99.90;;;;;;5019286;28;20192;-71
2023/10/21 04:20:25;;;;;;;40.40;16.00;;;7.50;99.90;;;;;;4997425;28;20166;-74
2023/10/21 04:22:51;;;;;;;41.73;14.93;;;7.60;99.90;;;;;;5006572;28;20205;-74
2023/10/21 04:25:16;;;;;;;37.20;14.83;;;7.50;99.90;;;;;;5010210;28;20218;-74
2023/10/21 04:27:42;;;;;;;44.33;15.57;;;7.50;99.90;;;;;;5010516;28;20667;-74
2023/10/21 04:30:08;;;;;;;39.37;14.30;;;7.50;99.90;;;;;;5010458;28;20215;-74
2023/10/21 04:32:34;;;;;;;44.33;15.23;;;7.50;99.90;;;;;;5007514;28;20645;-74
2023/10/21 04:35:00;;;;;;;42.60;15.17;;;7.50;99.90;;;;;;5004632;28;20216;-74
2023/10/21 04:37:26;;;;;;;39.37;15.60;;;7.50;99.90;;;;;;5004758;28;20297;-72
2023/10/21 04:39:53;;;;;;;35.23;14.23;;;7.50;99.90;;;;;;5004237;28;20328;-76
2023/10/21 04:42:19;;;;;;;37.13;14.80;;;7.50;99.90;;;;;;5004972;28;20209;-76
2023/10/21 04:44:44;;;;;;;42.53;15.43;;;7.50;99.90;;;;;;5006951;28;20254;-76
2023/10/21 04:47:11;;;;;;;32.03;14.77;;;7.50;99.90;;;;;;5004977;28;20208;-76
2023/10/21 04:49:37;;;;;;;40.23;15.00;;;7.50;99.90;;;;;;5007169;28;20332;-76
2023/10/21 04:52:03;;;;;;;43.73;16.20;;;7.50;99.90;;;;;;5004099;28;20201;-76
2023/10/21 04:54:29;;;;;;;34.60;15.10;;;7.50;99.90;;;;;;5005396;28;20231;-75
2023/10/21 04:56:55;;;;;;;40.37;14.43;;;7.60;99.90;;;;;;5010164;28;20189;-76
2023/10/21 04:59:20;;;;;;;34.00;14.20;;;7.50;99.90;;;;;;5001455;28;20193;-73
2023/10/21 05:01:46;;;;;;;41.47;15.47;;;7.50;99.90;;;;;;5023678;28;20687;-76
2023/10/21 05:04:11;;;;;;;35.67;15.47;;;7.60;99.90;;;;;;5002083;28;20275;-74
2023/10/21 05:06:37;;;;;;;35.47;15.60;;;7.60;99.90;;;;;;5007264;28;20233;-74
2023/10/21 05:09:03;;;;;;;41.07;14.67;;;7.60;99.90;;;;;;5003549;28;20182;-72
2023/10/21 05:11:29;;;;;;;43.83;15.07;;;7.60;99.90;;;;;;5002471;28;20253;-73
2023/10/21 05:13:55;;;;;;;45.67;15.87;;;7.60;99.90;;;;;;5005776;28;20219;-74
2023/10/21 05:16:21;;;;;;;37.60;14.70;;;7.60;99.90;;;;;;5010286;28;20587;-77
2023/10/21 05:18:46;;;;;;;41.23;15.53;;;7.60;99.90;;;;;;5010226;28;20205;-74
2023/10/21 05:21:12;;;;;;;41.73;14.70;;;7.60;99.90;;;;;;5001606;28;20178;-73
2023/10/21 05:23:38;;;;;;;44.10;16.40;;;7.60;99.90;;;;;;4999916;28;20668;-76
2023/10/21 05:26:04;;;;;;;43.00;15.73;;;7.60;99.90;;;;;;5004229;28;20247;-75
2023/10/21 05:28:31;;;;;;;43.70;16.23;;;7.60;99.90;;;;;;5003765;28;20861;-76
2023/10/21 05:30:57;;;;;;;48.63;15.77;;;7.60;99.90;;;;;;5002535;28;20209;-74
2023/10/21 05:33:23;;;;;;;42.97;15.77;;;7.60;99.90;;;;;;5002147;28;20268;-75
2023/10/21 05:35:49;;;;;;;41.80;15.03;;;7.60;99.90;;;;;;5001013;28;20193;-76
2023/10/21 05:38:14;;;;;;;45.70;14.37;;;7.60;99.90;;;;;;5002709;28;20236;-76
2023/10/21 05:40:41;;;;;;;50.80;15.97;;;7.60;99.90;;;;;;5000886;28;20233;-75
2023/10/21 05:43:07;;;;;;;45.13;15.93;;;7.60;99.90;;;;;;5002318;28;20209;-76
2023/10/21 05:45:34;;;;;;;46.60;15.87;;;7.60;99.90;;;;;;5020250;28;20231;-76
2023/10/21 05:47:59;;;;;;;33.17;15.93;;;7.60;99.90;;;;;;5005210;28;20560;-76
2023/10/21 05:50:25;;;;;;;46.23;15.80;;;7.60;99.90;;;;;;4997011;28;20174;-76
2023/10/21 05:52:54;;;;;;;47.30;15.10;;;7.60;99.90;;;;;;5004777;28;21038;-76
2023/10/21 05:55:20;;;;;;;38.80;15.00;;;7.60;99.90;;;;;;5014644;28;20669;-76
2023/10/21 05:57:46;;;;;;;38.90;15.17;;;7.60;99.90;;;;;;5004216;28;20279;-76
2023/10/21 06:00:13;;;;;;;53.63;14.63;;;7.60;99.90;;;;;;5002044;28;20177;-75
2023/10/21 06:02:38;;;;;;;52.53;15.73;;;7.60;99.90;;;;;;5006226;28;20176;-76
2023/10/21 06:05:06;;;;;;;54.23;15.77;;;7.70;99.90;;;;;;5000133;28;20218;-75
2023/10/21 06:07:33;;;;;;;33.90;14.20;;;7.60;99.90;;;;;;5003249;28;20208;-75
2023/10/21 06:09:58;;;;;;;52.77;15.60;;;7.70;99.90;;;;;;5003819;28;20211;-75
2023/10/21 06:12:24;;;;;;;46.20;16.77;;;7.70;99.90;;;;;;5018967;28;20290;-75
2023/10/21 06:14:51;;;;;;;46.47;14.73;;;7.70;99.90;;;;;;5001818;28;20578;-75
2023/10/21 06:17:17;;;;;;;55.97;16.43;;;7.70;99.90;;;;;;5001531;28;20641;-75
2023/10/21 06:19:45;;;;;;;44.07;15.40;;;7.70;99.90;;;;;;4999098;28;20206;-76
2023/10/21 06:22:12;;;;;;;54.07;15.53;;;7.70;99.90;;;;;;5017250;28;20244;-76
2023/10/21 06:24:39;;;;;;;44.10;15.03;;;7.70;99.90;;;;;;5012250;28;20221;-77
2023/10/21 06:27:07;;;;;;;42.63;14.00;;;7.80;99.90;;;;;;5005669;28;20173;-73
2023/10/21 06:29:33;;;;;;;47.57;15.17;;;7.80;99.90;;;;;;5000378;28;20219;-75
2023/10/21 06:31:59;;;;;;;36.13;14.50;;;7.80;99.90;;;;;;5003156;28;20213;-75
2023/10/21 06:34:24;;;;;;;36.83;12.70;;;7.80;99.90;;;;;;5019203;28;20220;-76
2023/10/21 06:36:50;;;;;;;46.10;13.93;;;7.80;99.90;;;;;;5005344;28;20240;-76
2023/10/21 06:39:15;;;;;;;38.47;13.87;;;7.80;99.90;;;;;;4997663;28;20205;-76
2023/10/21 06:41:41;;;;;;;39.27;13.50;;;7.80;99.90;;;;;;5005633;28;20549;-76
2023/10/21 06:44:08;;;;;;;43.57;14.23;;;7.80;99.90;;;;;;5017079;28;20213;-76
2023/10/21 06:46:34;;;;;;;47.23;14.33;;;7.80;99.90;;;;;;4998321;28;20240;-76
2023/10/21 06:49:00;;;;;;;30.87;13.20;;;7.80;99.90;;;;;;5009643;28;20216;-77
2023/10/21 06:51:26;;;;;;;39.27;14.37;;;7.80;99.90;;;;;;5001739;28;20217;-75
2023/10/21 06:53:52;;;;;;;33.57;11.63;;;7.90;99.90;;;;;;4998316;28;20217;-75
2023/10/21 06:56:17;;;;;;;44.13;13.60;;;7.90;99.90;;;;;;5034171;22;20287;-73
2023/10/21 06:58:47;;;;;;;33.30;13.60;;;7.90;99.90;;;;;;5020237;28;20287;-73
2023/10/21 07:01:13;;;;;;;35.87;13.63;;;7.90;99.90;;;;;;5021690;28;20216;-72
2023/10/21 07:03:39;;;;;;;35.47;14.13;;;7.90;99.90;;;;;;5025368;28;20200;-72
2023/10/21 07:06:05;;;;;;;30.23;13.17;;;7.90;99.90;;;;;;5023746;28;20253;-72
2023/10/21 07:08:31;;;;;;;29.63;13.40;;;8.00;99.90;;;;;;5018417;28;20173;-72
2023/10/21 07:10:57;;;;;;;35.60;14.80;;;8.00;99.90;;;;;;5022084;28;20829;-69
2023/10/21 07:13:22;;;;;;;37.93;14.43;;;8.00;99.90;;;;;;5009670;28;20204;-72
2023/10/21 07:15:48;;;;;;;35.93;14.33;;;8.10;99.90;;;;;;5016253;28;20721;-72
2023/10/21 07:18:14;;;;;;;32.50;14.70;;;8.10;99.90;;;;;;5015025;28;20304;-73
2023/10/21 07:20:40;;;;;;;31.73;14.27;;;8.00;99.90;;;;;;5020974;28;20181;-73
2023/10/21 07:23:08;;;;;;;37.47;16.47;;;8.10;99.90;;;;;;5019033;28;20273;-74
2023/10/21 07:25:37;;;;;;;31.43;12.87;;;8.10;99.90;;;;;;5024178;28;20555;-74
2023/10/21 07:28:03;;;;;;;34.57;14.53;;;8.10;99.90;;;;;;5018721;28;20212;-73
2023/10/21 07:30:29;;;;;;;29.03;13.63;;;8.20;99.90;;;;;;5020976;28;20205;-71
2023/10/21 07:32:55;;;;;;;30.23;14.33;;;8.30;99.90;;;;;;5022185;28;20180;-72
2023/10/21 07:35:21;;;;;;;32.37;14.07;;;8.30;99.90;;;;;;5011127;28;20586;-74
2023/10/21 07:37:46;;;;;;;30.63;13.50;;;8.40;99.90;;;;;;5015215;28;20209;-74
2023/10/21 07:40:13;;;;;;;27.90;12.83;;;8.40;99.90;;;;;;5018630;28;20215;-74
2023/10/21 07:42:39;;;;;;;30.70;14.37;;;8.40;99.90;;;;;;5017175;28;20213;-75
2023/10/21 07:45:05;;;;;;;33.10;14.80;;;8.40;99.90;;;;;;5019039;28;20208;-72
2023/10/21 07:47:33;;;;;;;31.40;14.77;;;8.50;99.90;;;;;;5020348;28;20652;-74
2023/10/21 07:49:59;;;;;;;26.27;13.07;;;8.50;99.90;;;;;;5026495;28;20210;-72
2023/10/21 07:52:25;;;;;;;23.63;12.03;;;8.60;99.90;;;;;;5022652;28;20212;-73
2023/10/21 07:54:52;;;;;;;30.97;13.43;;;8.60;99.90;;;;;;5035415;28;20267;-72
2023/10/21 07:57:18;;;;;;;29.40;13.43;;;8.60;99.90;;;;;;5024416;28;20307;-73
2023/10/21 07:59:45;;;;;;;28.73;14.60;;;8.60;99.90;;;;;;5020699;28;20255;-73
2023/10/21 08:02:10;;;;;;;27.53;13.60;;;8.70;99.90;;;;;;5014867;28;20307;-70
2023/10/21 08:04:36;;;;;;;27.10;13.00;;;8.80;99.90;;;;;;5023388;28;20303;-71
2023/10/21 08:07:02;;;;;;;27.90;13.23;;;8.90;99.90;;;;;;5020081;28;20226;-75
2023/10/21 08:09:27;;;;;;;24.27;11.70;;;9.10;99.90;;;;;;5018434;28;20295;-71
2023/10/21 08:11:53;;;;;;;24.30;11.97;;;9.20;99.90;;;;;;5032811;28;20180;-73
2023/10/21 08:14:19;;;;;;;22.70;12.00;;;9.30;99.90;;;;;;5023751;28;20240;-73
2023/10/21 08:16:44;;;;;;;23.30;11.60;;;9.40;99.90;;;;;;5022742;28;20219;-73
2023/10/21 08:19:10;;;;;;;20.33;11.70;;;9.50;99.90;;;;;;5023862;28;20940;-72
2023/10/21 08:21:36;;;;;;;21.97;11.40;;;9.50;99.90;;;;;;5021245;28;20288;-77
2023/10/21 08:24:02;;;;;;;21.73;10.93;;;9.60;99.90;;;;;;5014069;28;20181;-74
2023/10/21 08:26:32;;;;;;;19.90;10.93;;;9.60;99.90;;;;;;5016973;28;20554;-74
2023/10/21 08:28:58;;;;;;;18.70;10.13;;;9.70;99.90;;;;;;5017654;28;20223;-73
2023/10/21 08:31:24;;;;;;;19.17;9.77;;;9.80;99.90;;;;;;5016495;28;20288;-73
2023/10/21 08:33:51;;;;;;;16.30;9.80;;;9.80;99.90;;;;;;5024533;28;20250;-73
2023/10/21 08:36:18;;;;;;;18.80;9.90;;;9.80;99.90;;;;;;5019183;28;20588;-73
2023/10/21 08:38:47;;;;;;;17.40;9.77;;;9.80;99.90;;;;;;5024717;28;20745;-73
2023/10/21 08:41:13;;;;;;;16.73;9.37;;;9.90;99.90;;;;;;5013507;28;20212;-74
2023/10/21 08:43:45;;;;;;;16.80;8.47;;;10.00;99.90;;;;;;5019599;28;20200;-73
2023/10/21 08:46:11;;;;;;;14.60;8.70;;;10.10;99.90;;;;;;5018967;28;20295;-73
2023/10/21 08:48:37;;;;;;;15.70;9.10;;;10.20;99.90;;;;;;5020259;28;20213;-73
2023/10/21 08:51:07;;;;;;;15.33;8.63;;;10.30;99.90;;;;;;5024915;28;20200;-73
2023/10/21 08:53:36;;;;;;;14.70;8.33;;;10.30;99.90;;;;;;5022223;28;20181;-73
2023/10/21 08:56:01;;;;;;;13.20;8.13;;;10.30;99.90;;;;;;5035110;28;20308;-71
2023/10/21 08:58:31;;;;;;;13.47;7.53;;;10.40;99.90;;;;;;5012158;28;20332;-73
2023/10/21 09:00:57;;;;;;;12.93;8.40;;;10.50;99.90;;;;;;5017277;28;20215;-71
2023/10/21 09:03:23;;;;;;;13.80;8.00;;;10.60;99.90;;;;;;5017658;28;20201;-74
2023/10/21 09:06:11;;;;;;;13.83;8.53;;;10.70;99.90;;;;;;5022602;28;20204;-74
2023/10/21 09:08:38;;;;;;;12.57;7.00;;;10.80;99.90;;;;;;5020026;28;20215;-73
2023/10/21 09:11:07;;;;;;;11.53;7.57;;;10.80;99.90;;;;;;5023575;28;20205;-73
2023/10/21 09:13:36;;;;;;;9.57;7.27;;;10.80;99.90;;;;;;5021302;28;20658;-74
2023/10/21 09:16:04;;;;;;;13.43;8.37;;;10.90;99.90;;;;;;5021772;28;20211;-74
2023/10/21 09:18:32;;;;;;;12.07;7.10;;;11.00;99.90;;;;;;5021433;28;20340;-73
2023/10/21 09:20:58;;;;;;;11.03;7.83;;;11.10;99.90;;;;;;5023877;28;20173;-74
2023/10/21 09:23:24;;;;;;;12.10;6.90;;;11.10;99.90;;;;;;5011694;28;20177;-74
2023/10/21 09:25:51;;;;;;;11.43;7.47;;;11.10;99.90;;;;;;5016025;28;20212;-74
2023/10/21 09:28:21;;;;;;;10.90;6.97;;;11.20;99.90;;;;;;5020236;28;20436;-74
2023/10/21 09:31:01;;;;;;;12.30;7.40;;;11.20;99.90;;;;;;5012535;28;20205;-73
2023/10/21 09:33:27;;;;;;;10.70;6.90;;;11.30;99.90;;;;;;5020953;28;20236;-72
2023/10/21 09:36:04;;;;;;;10.73;7.40;;;11.40;99.90;;;;;;5019241;28;20684;-73
2023/10/21 09:38:36;;;;;;;10.80;7.10;;;11.40;99.90;;;;;;5021372;28;20237;-72
2023/10/21 09:41:11;;;;;;;10.18;6.25;;;11.50;99.90;;;;;;5021760;28;20558;-73
2023/10/21 09:43:41;;;;;;;8.43;6.38;;;11.60;99.90;;;;;;5009454;28;20295;-73
2023/10/21 09:46:10;;;;;;;9.50;5.88;;;11.60;99.90;;;;;;5020966;28;20624;-75
2023/10/21 09:48:40;;;;;;;7.88;5.70;;;11.80;99.90;;;;;;5016260;28;20270;-74
2023/10/21 09:51:09;;;;;;;7.77;6.17;;;11.80;99.90;;;;;;5021463;28;20202;-71
2023/10/21 09:53:47;;;;;;;15.48;7.13;;;11.90;99.90;;;;;;5019263;28;20181;-75
2023/10/21 09:56:17;;;;;;;11.25;6.95;;;12.00;99.90;;;;;;5020754;28;20211;-74
2023/10/21 09:58:43;;;;;;;9.40;6.13;;;12.20;99.90;;;;;;5022195;28;20255;-72
2023/10/21 10:01:10;;;;;;;6.72;5.50;;;12.20;99.90;;;;;;5017832;28;20209;-73
2023/10/21 10:03:37;;;;;;;8.88;5.32;;;12.30;99.90;;;;;;5019017;28;20220;-74
2023/10/21 10:06:04;;;;;;;8.63;6.47;;;12.30;99.90;;;;;;5019839;28;20579;-72
2023/10/21 10:08:34;;;;;;;8.20;6.00;;;12.40;99.90;;;;;;5019934;28;20165;-73
2023/10/21 10:11:10;;;;;;;7.50;5.43;;;12.50;99.90;;;;;;5020804;28;20204;-71
2023/10/21 10:13:42;;;;;;;9.82;6.00;;;12.60;99.90;;;;;;5019810;28;20689;-74
2023/10/21 10:16:22;;;;;;;8.45;5.63;;;12.70;99.90;;;;;;5038049;28;20204;-71
2023/10/21 10:18:50;;;;;;;7.38;5.57;;;12.80;99.90;;;;;;5019702;28;20200;-72
2023/10/21 10:21:18;;;;;;;9.00;5.50;;;12.90;99.90;;;;;;5023069;28;20549;-73
2023/10/21 10:23:58;;;;;;;9.80;4.65;;;12.90;99.90;;;;;;5022828;28;20185;-74
2023/10/21 10:26:39;;;;;;;6.15;4.57;;;13.00;99.90;;;;;;5021851;28;20219;-75
2023/10/21 10:29:25;;;;;;;6.82;4.35;;;13.00;99.90;;;;;;5016506;28;20302;-75
2023/10/21 10:32:11;;;;;;;5.93;4.30;;;13.10;99.90;;;;;;5017182;28;20212;-74
2023/10/21 10:34:48;;;;;;;6.75;4.70;;;13.30;99.90;;;;;;5015857;28;20325;-75
2023/10/21 10:37:34;;;;;;;8.85;5.78;;;13.50;99.90;;;;;;5019368;28;20208;-74
2023/10/21 10:40:05;;;;;;;6.38;5.03;;;13.70;99.90;;;;;;5017185;28;20197;-75
2023/10/21 10:42:34;;;;;;;10.02;7.25;;;13.90;99.90;;;;;;5021367;28;20208;-74
2023/10/21 10:44:59;;;;;;;5.82;4.22;;;14.20;99.90;;;;;;5037541;28;20588;-74
2023/10/21 10:47:26;;;;;;;7.05;4.93;;;14.40;99.90;;;;;;5022010;28;20181;-75
2023/10/21 10:50:00;;;;;;;4.97;3.95;;;14.50;99.90;;;;;;5013047;28;20263;-74
2023/10/21 10:52:33;;;;;;;6.63;3.40;;;14.60;99.90;;;;;;5003980;28;20212;-73
2023/10/21 10:55:00;;;;;;;4.03;3.58;;;14.80;99.90;;;;;;5019402;28;20213;-74
2023/10/21 10:57:27;;;;;;;4.00;2.80;;;14.90;99.90;;;;;;5019119;28;20295;-73
2023/10/21 10:59:53;;;;;;;4.60;3.40;;;15.00;99.90;;;;;;5019590;28;20184;-74
2023/10/21 11:02:19;;;;;;;2.58;2.20;;;15.10;99.90;;;;;;5017656;28;20208;-74
2023/10/21 11:04:49;;;;;;;3.78;1.75;;;15.30;99.90;;;;;;5022919;28;20239;-74
2023/10/21 11:07:25;;;;;;;2.17;1.30;;;15.50;99.90;;;;;;5022576;28;20707;-75
2023/10/21 11:10:01;;;;;;;3.38;1.33;;;15.70;99.90;;;;;;5023466;28;20227;-74
2023/10/21 11:12:27;;;;;;;2.90;1.27;;;15.70;99.90;;;;;;5018762;28;20693;-73
2023/10/21 11:14:53;;;;;;;1.65;0.70;;;15.90;99.90;;;;;;5018036;28;20189;-75
2023/10/21 11:17:20;;;;;;;0.95;0.85;;;15.90;99.90;;;;;;5017321;28;20208;-75
2023/10/21 11:19:45;;;;;;;3.08;1.52;;;15.90;99.90;;;;;;5012746;28;20215;-75
2023/10/21 11:22:21;;;;;;;1.27;1.08;;;15.80;99.90;;;;;;5018099;28;20806;-75
2023/10/21 11:24:47;;;;;;;1.10;0.60;;;16.00;99.90;;;;;;5012595;28;20219;-75
2023/10/21 11:27:14;;;;;;;1.23;0.65;;;16.00;99.90;;;;;;5021092;28;20532;-75
2023/10/21 11:29:41;;;;;;;1.60;0.80;;;16.00;99.90;;;;;;5014620;28;20226;-74
2023/10/21 11:32:13;;;;;;;1.10;0.50;;;15.90;99.90;;;;;;5018534;28;20205;-75
2023/10/21 11:34:43;;;;;;;1.20;0.77;;;15.90;99.90;;;;;;5010895;28;20290;-73
2023/10/21 11:37:10;;;;;;;0.93;0.82;;;15.80;99.90;;;;;;5017471;28;20204;-73
2023/10/21 11:39:39;;;;;;;1.60;0.88;;;15.80;99.90;;;;;;5015483;28;20217;-75
2023/10/21 11:42:17;;;;;;;1.15;0.57;;;15.80;99.90;;;;;;5020310;28;20201;-75
2023/10/21 11:44:53;;;;;;;2.10;0.77;;;15.80;99.90;;;;;;4999875;28;20178;-74
2023/10/21 11:47:21;;;;;;;0.40;0.30;;;15.80;99.90;;;;;;5017744;28;20591;-74
2023/10/21 11:49:48;;;;;;;0.98;0.47;;;15.80;99.90;;;;;;5018345;28;20208;-73
2023/10/21 11:52:13;;;;;;;2.28;0.40;;;15.90;99.90;;;;;;5003710;28;20212;-74
2023/10/21 11:55:13;;;;;;;0.47;0.40;;;15.80;99.90;;;;;;5012886;28;20212;-74
2023/10/21 12:09:21;;;;;;;0.52;0.45;;;16.10;99.90;;;;;;5021221;28;20256;-74
2023/10/21 12:11:20;;;;;;;0.73;0.60;;;16.10;99.90;;;;;;5003212;28;20200;-74
2023/10/21 12:39:37;;;;;;;0.47;0.35;;;16.40;99.90;;;;;;5016696;28;20220;-73
2023/10/21 12:42:18;;;;;;;1.95;0.32;;;16.50;99.90;;;;;;5018867;28;20180;-75
2023/10/21 12:44:51;;;;;;;0.52;0.40;;;16.70;99.90;;;;;;5020395;28;20175;-74
2023/10/21 12:47:17;;;;;;;1.55;0.45;;;16.80;99.90;;;;;;5023143;28;20713;-74
2023/10/21 12:49:43;;;;;;;0.82;0.40;;;16.80;99.90;;;;;;5021942;28;20205;-73
2023/10/21 12:52:11;;;;;;;0.68;0.40;;;16.80;99.90;;;;;;5018387;28;20212;-74
2023/10/21 12:54:36;;;;;;;1.58;0.52;;;16.70;99.90;;;;;;5013976;28;20218;-73
2023/10/21 12:57:02;;;;;;;2.03;0.60;;;16.60;99.90;;;;;;5022349;28;20683;-73
2023/10/21 12:59:28;;;;;;;0.85;0.35;;;16.60;99.90;;;;;;5019315;28;20183;-72
2023/10/21 13:01:54;;;;;;;0.95;0.45;;;16.70;99.90;;;;;;5017822;28;20205;-73
2023/10/21 13:04:21;;;;;;;4.05;0.60;;;16.80;99.90;;;;;;5022850;28;20295;-73
2023/10/21 13:06:47;;;;;;;6.78;0.68;;;16.80;99.90;;;;;;5020617;28;20224;-74
2023/10/21 13:09:27;;;;;;;1.08;0.30;;;16.80;99.90;;;;;;5021930;28;20185;-75
2023/10/21 13:11:53;;;;;;;1.08;0.50;;;16.90;99.90;;;;;;5021646;28;20168;-73
2023/10/21 13:14:20;;;;;;;0.47;0.47;;;16.90;99.90;;;;;;5036760;28;20205;-71
2023/10/21 13:16:47;;;;;;;0.40;0.40;;;16.90;99.90;;;;;;5013351;28;20300;-74